createdAt,value
2018-08-06T00:00:45.025Z,22.40
2018-08-06T00:05:42.527Z,22.30
2018-08-06T00:08:11.386Z,22.20
2018-08-06T00:10:40.252Z,22.20
2018-08-06T00:13:09.159Z,22.10
2018-08-06T00:15:37.999Z,22.10
2018-08-06T00:18:06.848Z,22.10
2018-08-06T00:20:35.752Z,22.00
2018-08-06T00:23:04.616Z,22.00
2018-08-06T00:25:33.444Z,21.90
2018-08-06T00:28:02.320Z,22.00
2018-08-06T00:30:31.200Z,22.00
2018-08-06T00:33:00.083Z,22.00
2018-08-06T00:35:28.955Z,21.90
2018-08-06T00:37:57.824Z,21.90
2018-08-06T00:40:26.680Z,21.90
2018-08-06T00:42:55.576Z,21.70
2018-08-06T00:45:24.474Z,21.80
2018-08-06T00:47:53.268Z,21.80
2018-08-06T00:50:22.143Z,21.80
2018-08-06T00:52:51.009Z,21.80
2018-08-06T00:55:20.573Z,21.80
2018-08-06T00:57:49.426Z,21.80
2018-08-06T01:00:20.090Z,21.70
2018-08-06T01:02:48.937Z,21.70
2018-08-06T01:05:18.084Z,21.60
2018-08-06T01:07:46.944Z,21.60
2018-08-06T01:10:17.276Z,21.50
2018-08-06T01:12:46.163Z,21.40
2018-08-06T01:15:17.948Z,21.20
2018-08-06T01:17:46.838Z,21.10
2018-08-06T01:20:15.819Z,21.00
2018-08-06T01:22:45.444Z,21.00
2018-08-06T01:25:14.725Z,20.90
2018-08-06T01:27:43.679Z,20.90
2018-08-06T01:30:13.839Z,20.90
2018-08-06T01:32:42.845Z,20.90
2018-08-06T01:35:12.159Z,20.80
2018-08-06T01:37:41.015Z,20.80
2018-08-06T01:40:12.476Z,20.80
2018-08-06T01:42:41.567Z,20.80
2018-08-06T01:45:12.280Z,20.60
2018-08-06T01:47:41.128Z,20.60
2018-08-06T01:50:10.988Z,20.60
2018-08-06T01:52:39.936Z,20.50
2018-08-06T01:55:08.804Z,20.40
2018-08-06T01:57:37.679Z,20.20
2018-08-06T02:00:09.684Z,20.00
2018-08-06T02:02:38.909Z,20.00
2018-08-06T02:05:08.135Z,20.20
2018-08-06T02:10:07.772Z,20.20
2018-08-06T02:12:36.639Z,20.10
2018-08-06T02:15:06.622Z,20.00
2018-08-06T02:17:36.203Z,19.90
2018-08-06T02:20:06.303Z,19.70
2018-08-06T02:22:35.432Z,19.70
2018-08-06T02:25:05.985Z,19.60
2018-08-06T02:27:34.944Z,19.40
2018-08-06T02:30:04.847Z,19.40
2018-08-06T02:35:02.200Z,19.30
2018-08-06T02:37:31.090Z,19.20
2018-08-06T02:40:00.064Z,19.20
2018-08-06T02:42:28.899Z,19.10
2018-08-06T02:44:57.845Z,19.10
2018-08-06T02:47:26.668Z,19.10
2018-08-06T02:49:55.532Z,19.00
2018-08-06T02:52:24.389Z,18.90
2018-08-06T02:54:53.431Z,18.90
2018-08-06T02:57:22.559Z,18.90
2018-08-06T02:59:51.440Z,19.00
2018-08-06T03:02:20.277Z,19.00
2018-08-06T03:04:49.141Z,19.00
2018-08-06T03:07:18.018Z,19.00
2018-08-06T03:09:46.861Z,19.00
2018-08-06T03:12:15.724Z,18.80
2018-08-06T03:14:44.580Z,18.80
2018-08-06T03:17:13.422Z,18.70
2018-08-06T03:19:42.288Z,18.70
2018-08-06T03:22:11.159Z,18.70
2018-08-06T03:24:40.008Z,18.60
2018-08-06T03:27:08.865Z,18.60
2018-08-06T03:29:37.878Z,18.50
2018-08-06T03:32:06.957Z,18.50
2018-08-06T03:34:35.816Z,18.60
2018-08-06T03:37:04.708Z,18.50
2018-08-06T03:39:33.560Z,18.50
2018-08-06T03:42:02.445Z,18.30
2018-08-06T03:44:31.339Z,18.40
2018-08-06T03:47:00.232Z,18.40
2018-08-06T03:49:29.042Z,18.40
2018-08-06T03:51:57.895Z,18.40
2018-08-06T03:54:26.735Z,18.30
2018-08-06T03:56:55.596Z,18.20
2018-08-06T03:59:24.455Z,18.20
2018-08-06T04:01:53.374Z,18.20
2018-08-06T04:04:22.262Z,18.20
2018-08-06T04:06:51.100Z,18.20
2018-08-06T04:09:19.955Z,18.30
2018-08-06T04:14:17.355Z,18.30
2018-08-06T04:16:46.231Z,18.20
2018-08-06T04:21:43.786Z,18.30
2018-08-06T04:24:12.679Z,18.30
2018-08-06T04:26:41.567Z,18.20
2018-08-06T04:29:10.401Z,18.30
2018-08-06T04:31:39.268Z,18.20
2018-08-06T04:34:08.133Z,18.30
2018-08-06T04:36:37.023Z,18.30
2018-08-06T04:39:06.907Z,18.70
2018-08-06T04:41:41.904Z,18.90
2018-08-06T04:44:10.800Z,19.20
2018-08-06T04:49:08.251Z,19.40
2018-08-06T04:51:37.109Z,19.60
2018-08-06T04:54:05.968Z,19.70
2018-08-06T04:56:34.829Z,19.70
2018-08-06T04:59:03.724Z,19.80
2018-08-06T05:01:32.572Z,20.00
2018-08-06T05:04:01.456Z,20.10
2018-08-06T05:06:30.309Z,20.20
2018-08-06T05:08:59.188Z,20.30
2018-08-06T05:11:28.036Z,20.40
2018-08-06T05:13:56.893Z,20.50
2018-08-06T05:16:25.741Z,20.70
2018-08-06T05:18:54.581Z,21.40
2018-08-06T05:21:23.448Z,22.90
2018-08-06T05:23:55.388Z,24.80
2018-08-06T05:26:24.824Z,26.40
2018-08-06T05:28:53.831Z,27.70
2018-08-06T05:31:24.140Z,29.10
2018-08-06T05:33:53.213Z,30.00
2018-08-06T05:36:22.605Z,30.90
2018-08-06T05:38:52.868Z,31.10
2018-08-06T05:41:22.780Z,31.60
2018-08-06T05:43:52.692Z,32.10
2018-08-06T05:46:21.545Z,31.80
2018-08-06T05:48:50.648Z,31.50
2018-08-06T05:51:19.527Z,31.30
2018-08-06T05:53:48.389Z,30.60
2018-08-06T05:56:17.234Z,30.40
2018-08-06T05:58:46.123Z,29.30
2018-08-06T06:01:15.073Z,29.70
2018-08-06T06:03:43.917Z,29.30
2018-08-06T06:06:12.868Z,29.10
2018-08-06T06:08:41.724Z,29.20
2018-08-06T06:11:11.360Z,29.70
2018-08-06T06:13:40.232Z,30.10
2018-08-06T06:16:09.128Z,29.80
2018-08-06T06:18:37.996Z,30.00
2018-08-06T06:21:06.891Z,29.20
2018-08-06T06:23:35.729Z,28.80
2018-08-06T06:26:04.596Z,29.10
2018-08-06T06:28:33.468Z,29.20
2018-08-06T06:31:02.320Z,30.00
2018-08-06T06:33:31.202Z,29.30
2018-08-06T06:36:00.051Z,28.30
2018-08-06T06:38:28.938Z,27.70
2018-08-06T06:40:57.769Z,27.90
2018-08-06T06:43:26.612Z,28.50
2018-08-06T06:45:55.560Z,28.50
2018-08-06T06:48:24.414Z,28.70
2018-08-06T06:50:53.291Z,29.30
2018-08-06T06:53:22.149Z,28.80
2018-08-06T06:55:50.988Z,28.40
2018-08-06T06:58:19.852Z,28.30
2018-08-06T07:00:48.721Z,29.10
2018-08-06T07:03:17.795Z,28.50
2018-08-06T07:05:46.594Z,28.40
2018-08-06T07:08:15.467Z,27.40
2018-08-06T07:10:44.312Z,27.30
2018-08-06T07:13:13.220Z,27.20
2018-08-06T07:15:42.101Z,27.90
2018-08-06T07:18:10.944Z,28.40
2018-08-06T07:20:39.800Z,28.30
2018-08-06T07:23:08.648Z,29.00
2018-08-06T07:25:37.513Z,29.00
2018-08-06T07:28:06.367Z,29.50
2018-08-06T07:30:35.301Z,30.10
2018-08-06T07:33:04.144Z,30.00
2018-08-06T07:35:33.046Z,30.10
2018-08-06T07:38:01.901Z,30.90
2018-08-06T07:40:30.757Z,31.10
2018-08-06T07:42:59.607Z,31.30
2018-08-06T07:45:28.492Z,30.70
2018-08-06T07:47:57.468Z,30.10
2018-08-06T07:50:26.308Z,30.80
2018-08-06T07:52:55.188Z,30.60
2018-08-06T07:55:24.044Z,31.00
2018-08-06T07:57:52.923Z,31.20
2018-08-06T08:00:21.807Z,31.30
2018-08-06T08:05:19.667Z,31.90
2018-08-06T08:07:48.913Z,32.10
2018-08-06T08:10:19.542Z,31.90
2018-08-06T08:12:48.401Z,32.80
2018-08-06T08:15:21.052Z,32.90
2018-08-06T08:17:50.065Z,32.70
2018-08-06T08:20:19.176Z,32.70
2018-08-06T08:22:47.912Z,32.30
2018-08-06T08:25:18.812Z,32.40
2018-08-06T08:30:16.903Z,32.30
2018-08-06T08:35:14.980Z,32.00
2018-08-06T08:37:43.956Z,32.00
2018-08-06T08:40:16.955Z,32.10
2018-08-06T08:42:45.837Z,32.40
2018-08-06T08:45:15.700Z,33.30
2018-08-06T08:47:45.157Z,33.60
2018-08-06T08:50:16.433Z,33.90
2018-08-06T08:52:45.395Z,33.90
2018-08-06T08:55:15.547Z,33.00
2018-08-06T09:00:18.244Z,32.70
2018-08-06T09:05:17.264Z,33.30
2018-08-06T09:07:46.480Z,33.70
2018-08-06T09:10:16.239Z,33.50
2018-08-06T09:12:45.242Z,33.80
2018-08-06T09:17:44.136Z,35.20
2018-08-06T09:20:13.029Z,35.20
2018-08-06T09:22:42.868Z,35.30
2018-08-06T09:25:12.592Z,35.00
2018-08-06T09:27:42.729Z,35.60
2018-08-06T09:30:13.996Z,35.70
2018-08-06T09:32:44.580Z,36.40
2018-08-06T09:37:42.821Z,35.00
2018-08-06T09:40:14.378Z,34.20
2018-08-06T09:42:43.865Z,34.50
2018-08-06T09:45:13.992Z,35.20
2018-08-06T09:47:44.072Z,35.70
2018-08-06T09:52:43.121Z,35.40
2018-08-06T09:55:13.387Z,35.20
2018-08-06T09:57:42.895Z,35.20
2018-08-06T10:00:22.568Z,35.20
2018-08-06T10:02:55.063Z,34.70
2018-08-06T10:05:24.848Z,34.20
2018-08-06T10:10:22.710Z,36.00
2018-08-06T10:12:51.603Z,35.50
2018-08-06T10:15:21.028Z,35.70
2018-08-06T10:17:51.388Z,35.00
2018-08-06T10:20:21.580Z,35.20
2018-08-06T10:22:50.637Z,34.30
2018-08-06T10:25:19.451Z,34.50
2018-08-06T10:30:18.483Z,35.30
2018-08-06T10:32:47.328Z,34.80
2018-08-06T10:35:17.384Z,35.20
2018-08-06T10:37:46.237Z,34.90
2018-08-06T10:40:19.625Z,34.50
2018-08-06T10:42:48.477Z,34.70
2018-08-06T10:45:19.293Z,34.20
2018-08-06T10:47:48.520Z,34.00
2018-08-06T10:50:17.411Z,32.70
2018-08-06T10:52:46.269Z,32.80
2018-08-06T10:55:15.142Z,32.80
2018-08-06T10:57:44.775Z,32.60
2018-08-06T11:00:16.655Z,32.80
2018-08-06T11:02:45.568Z,32.70
2018-08-06T11:05:15.251Z,32.50
2018-08-06T11:07:44.124Z,33.00
2018-08-06T11:10:17.145Z,33.10
2018-08-06T11:12:46.020Z,33.50
2018-08-06T11:15:16.961Z,33.00
2018-08-06T11:17:45.832Z,32.70
2018-08-06T11:20:15.674Z,33.00
2018-08-06T11:22:44.541Z,32.50
2018-08-06T11:27:42.611Z,33.00
2018-08-06T11:30:13.603Z,33.00
2018-08-06T11:32:42.483Z,32.80
2018-08-06T11:35:12.237Z,33.00
2018-08-06T11:37:41.504Z,33.30
2018-08-06T11:40:11.395Z,33.10
2018-08-06T11:42:41.117Z,33.20
2018-08-06T11:45:13.105Z,33.00
2018-08-06T11:47:42.041Z,32.90
2018-08-06T11:50:11.124Z,33.00
2018-08-06T11:52:39.996Z,32.60
2018-08-06T11:55:09.476Z,33.10
2018-08-06T11:57:38.424Z,33.60
2018-08-06T12:00:09.793Z,33.20
2018-08-06T12:02:38.686Z,32.70
2018-08-06T12:07:36.356Z,33.00
2018-08-06T12:10:08.416Z,32.90
2018-08-06T12:12:37.272Z,33.00
2018-08-06T12:15:07.045Z,33.50
2018-08-06T12:17:36.065Z,33.30
2018-08-06T12:20:07.239Z,33.00
2018-08-06T12:22:36.076Z,33.00
2018-08-06T12:25:06.364Z,33.50
2018-08-06T12:27:35.280Z,33.40
2018-08-06T12:30:05.437Z,33.20
2018-08-06T12:32:34.306Z,33.20
2018-08-06T12:35:03.188Z,33.40
2018-08-06T12:37:32.060Z,33.60
2018-08-06T12:40:00.915Z,33.20
2018-08-06T12:42:29.775Z,33.10
2018-08-06T12:44:58.651Z,33.10
2018-08-06T12:47:27.529Z,33.10
2018-08-06T12:49:56.384Z,33.20
2018-08-06T12:52:25.225Z,33.10
2018-08-06T12:54:54.171Z,33.00
2018-08-06T12:57:23.092Z,33.20
2018-08-06T13:02:20.699Z,33.00
2018-08-06T13:04:49.636Z,33.20
2018-08-06T13:07:18.500Z,33.30
2018-08-06T13:09:47.417Z,33.00
2018-08-06T13:12:16.254Z,32.80
2018-08-06T13:14:45.102Z,32.50
2018-08-06T13:17:13.957Z,32.70
2018-08-06T13:19:42.805Z,32.90
2018-08-06T13:22:11.722Z,32.80
2018-08-06T13:24:40.576Z,32.80
2018-08-06T13:27:09.460Z,32.80
2018-08-06T13:29:38.336Z,33.00
2018-08-06T13:32:07.233Z,32.80
2018-08-06T13:34:36.152Z,32.70
2018-08-06T13:37:05.058Z,32.80
2018-08-06T13:39:33.909Z,33.00
2018-08-06T13:42:02.757Z,32.70
2018-08-06T13:44:31.699Z,32.80
2018-08-06T13:47:00.504Z,33.30
2018-08-06T13:49:29.535Z,33.30
2018-08-06T13:51:58.389Z,33.40
2018-08-06T13:56:55.777Z,33.00
2018-08-06T13:59:24.748Z,32.80
2018-08-06T14:04:22.012Z,32.90
2018-08-06T14:06:50.920Z,32.90
2018-08-06T14:09:19.756Z,33.00
2018-08-06T14:11:48.624Z,33.00
2018-08-06T14:14:17.476Z,33.00
2018-08-06T14:16:46.338Z,33.00
2018-08-06T14:19:15.200Z,32.80
2018-08-06T14:21:44.068Z,33.00
2018-08-06T14:24:12.916Z,32.80
2018-08-06T14:26:41.804Z,32.90
2018-08-06T14:29:10.653Z,32.80
2018-08-06T14:31:39.862Z,32.70
2018-08-06T14:36:37.212Z,32.90
2018-08-06T14:39:08.886Z,33.00
2018-08-06T14:41:37.773Z,33.10
2018-08-06T14:44:07.239Z,33.00
2018-08-06T14:46:37.003Z,33.00
2018-08-06T14:49:06.037Z,32.80
2018-08-06T14:51:34.886Z,32.90
2018-08-06T14:54:03.975Z,33.00
2018-08-06T14:56:32.837Z,32.80
2018-08-06T15:01:30.246Z,32.70
2018-08-06T15:03:59.123Z,32.70
2018-08-06T15:06:28.032Z,32.70
2018-08-06T15:08:56.913Z,32.80
2018-08-06T15:11:25.866Z,32.80
2018-08-06T15:13:54.747Z,32.70
2018-08-06T15:16:23.580Z,32.90
2018-08-06T15:18:52.436Z,33.00
2018-08-06T15:21:21.284Z,33.10
2018-08-06T15:23:50.147Z,33.10
2018-08-06T15:26:19.101Z,32.80
2018-08-06T15:28:47.940Z,32.80
2018-08-06T15:31:16.847Z,32.60
2018-08-06T15:33:45.688Z,32.60
2018-08-06T15:36:14.552Z,32.60
2018-08-06T15:38:43.440Z,32.50
2018-08-06T15:41:12.323Z,32.50
2018-08-06T15:43:41.177Z,32.50
2018-08-06T15:46:10.058Z,32.50
2018-08-06T15:48:38.908Z,32.50
2018-08-06T15:51:07.756Z,32.60
2018-08-06T15:53:36.702Z,32.50
2018-08-06T15:56:05.880Z,32.50
2018-08-06T15:58:34.735Z,32.50
2018-08-06T16:01:03.611Z,32.40
2018-08-06T16:03:32.540Z,32.30
2018-08-06T16:06:01.349Z,32.20
2018-08-06T16:08:30.252Z,32.20
2018-08-06T16:10:59.088Z,32.20
2018-08-06T16:13:27.933Z,32.20
2018-08-06T16:15:56.842Z,32.10
2018-08-06T16:18:25.725Z,32.10
2018-08-06T16:20:54.567Z,32.10
2018-08-06T16:23:23.448Z,32.10
2018-08-06T16:25:52.319Z,32.00
2018-08-06T16:28:21.201Z,32.00
2018-08-06T16:33:18.608Z,31.80
2018-08-06T16:35:47.562Z,31.80
2018-08-06T16:38:16.465Z,31.80
2018-08-06T16:40:45.296Z,31.80
2018-08-06T16:43:14.217Z,31.80
2018-08-06T16:45:43.060Z,31.80
2018-08-06T16:48:11.921Z,31.70
2018-08-06T16:50:40.790Z,31.60
2018-08-06T16:53:09.652Z,31.60
2018-08-06T16:55:38.524Z,31.60
2018-08-06T16:58:07.641Z,31.40
2018-08-06T17:00:36.513Z,31.40
2018-08-06T17:03:06.272Z,31.40
2018-08-06T17:05:35.444Z,31.30
2018-08-06T17:08:04.307Z,31.20
2018-08-06T17:10:33.150Z,31.20
2018-08-06T17:13:02.028Z,31.10
2018-08-06T17:15:30.908Z,31.10
2018-08-06T17:17:59.751Z,31.10
2018-08-06T17:22:57.160Z,31.00
2018-08-06T17:25:26.009Z,31.00
2018-08-06T17:27:54.879Z,30.70
2018-08-06T17:30:23.771Z,30.50
2018-08-06T17:32:52.657Z,30.50
2018-08-06T17:35:21.553Z,30.40
2018-08-06T17:37:50.400Z,30.30
2018-08-06T17:40:19.584Z,30.30
2018-08-06T17:42:48.753Z,30.30
2018-08-06T17:45:19.534Z,30.30
2018-08-06T17:47:48.385Z,30.30
2018-08-06T17:50:18.919Z,30.30
2018-08-06T17:52:48.872Z,30.20
2018-08-06T17:55:18.761Z,30.20
2018-08-06T17:57:47.889Z,30.10
2018-08-06T18:00:17.360Z,30.10
2018-08-06T18:02:46.420Z,30.00
2018-08-06T18:05:16.192Z,29.80
2018-08-06T18:07:45.385Z,29.70
2018-08-06T18:10:15.303Z,29.60
2018-08-06T18:12:44.987Z,29.50
2018-08-06T18:15:13.887Z,29.60
2018-08-06T18:17:42.807Z,29.60
2018-08-06T18:20:15.345Z,29.50
2018-08-06T18:22:44.327Z,29.40
2018-08-06T18:25:14.845Z,29.40
2018-08-06T18:27:44.924Z,29.50
2018-08-06T18:30:15.852Z,29.60
2018-08-06T18:32:44.741Z,29.40
2018-08-06T18:35:15.967Z,29.40
2018-08-06T18:37:44.848Z,29.40
2018-08-06T18:40:14.626Z,29.20
2018-08-06T18:42:43.455Z,29.20
2018-08-06T18:45:14.644Z,29.10
2018-08-06T18:47:44.427Z,28.90
2018-08-06T18:50:14.143Z,28.80
2018-08-06T18:52:49.876Z,28.80
2018-08-06T18:55:19.051Z,28.70
2018-08-06T18:57:47.902Z,28.60
2018-08-06T19:00:20.600Z,28.40
2018-08-06T19:02:50.530Z,28.30
2018-08-06T19:05:19.430Z,28.40
2018-08-06T19:07:48.321Z,28.40
2018-08-06T19:10:17.204Z,28.60
2018-08-06T19:12:51.675Z,28.70
2018-08-06T19:15:20.500Z,28.70
2018-08-06T19:17:54.819Z,28.70
2018-08-06T19:20:23.703Z,28.60
2018-08-06T19:22:52.594Z,28.40
2018-08-06T19:25:27.683Z,28.30
2018-08-06T19:27:56.807Z,28.20
2018-08-06T19:31:30.203Z,28.20
2018-08-06T19:33:59.077Z,28.00
2018-08-06T19:36:32.211Z,26.60
2018-08-06T19:39:01.076Z,25.80
2018-08-06T19:41:30.032Z,25.50
2018-08-06T19:43:58.834Z,25.10
2018-08-06T19:46:27.688Z,25.00
2018-08-06T19:48:56.541Z,25.00
2018-08-06T19:51:25.381Z,25.20
2018-08-06T19:53:55.073Z,25.60
2018-08-06T19:56:23.980Z,25.80
2018-08-06T19:58:52.816Z,25.90
2018-08-06T20:01:21.660Z,25.90
2018-08-06T20:03:50.533Z,26.00
2018-08-06T20:06:19.407Z,26.20
2018-08-06T20:08:48.274Z,26.20
2018-08-06T20:11:17.128Z,26.20
2018-08-06T20:13:46.171Z,26.10
2018-08-06T20:16:14.950Z,26.10
2018-08-06T20:18:43.910Z,26.00
2018-08-06T20:21:12.788Z,25.90
2018-08-06T20:23:41.699Z,25.90
2018-08-06T20:26:10.543Z,25.90
2018-08-06T20:28:39.416Z,25.70
2018-08-06T20:31:08.287Z,25.50
2018-08-06T20:33:37.252Z,25.40
2018-08-06T20:36:06.164Z,25.30
2018-08-06T20:38:35.180Z,25.30
2018-08-06T20:41:04.056Z,25.20
2018-08-06T20:46:02.302Z,25.20
2018-08-06T20:48:31.221Z,25.30
2018-08-06T20:51:00.045Z,25.40
2018-08-06T20:53:28.889Z,25.20
2018-08-06T20:55:57.883Z,25.20
2018-08-06T20:58:26.684Z,25.10
2018-08-06T21:03:24.137Z,25.10
2018-08-06T21:05:53.044Z,25.00
2018-08-06T21:08:21.936Z,24.90
2018-08-06T21:10:50.925Z,24.80
2018-08-06T21:13:19.735Z,24.70
2018-08-06T21:15:48.707Z,24.60
2018-08-06T21:18:17.523Z,24.60
2018-08-06T21:20:46.408Z,24.60
2018-08-06T21:23:15.272Z,24.60
2018-08-06T21:25:44.225Z,24.50
2018-08-06T21:28:13.096Z,24.40
2018-08-06T21:30:41.940Z,24.40
2018-08-06T21:33:10.922Z,24.20
2018-08-06T21:35:39.770Z,24.20
2018-08-06T21:38:08.618Z,24.10
2018-08-06T21:40:37.545Z,24.10
2018-08-06T21:43:06.517Z,24.00
2018-08-06T21:45:35.526Z,24.00
2018-08-06T21:48:05.457Z,24.00
2018-08-06T21:50:34.387Z,23.90
2018-08-06T21:53:03.223Z,23.80
2018-08-06T21:55:32.095Z,23.80
2018-08-06T21:58:00.933Z,23.70
2018-08-06T22:00:37.445Z,23.70
2018-08-06T22:03:09.214Z,23.60
2018-08-06T22:05:38.052Z,23.60
2018-08-06T22:08:06.976Z,23.50
2018-08-06T22:10:35.990Z,23.50
2018-08-06T22:13:05.508Z,23.40
2018-08-06T22:15:34.369Z,23.30
2018-08-06T22:18:03.309Z,23.20
2018-08-06T22:20:32.180Z,23.10
2018-08-06T22:23:01.049Z,23.00
2018-08-06T22:25:29.978Z,22.90
2018-08-06T22:27:58.866Z,22.80
2018-08-06T22:32:56.244Z,22.70
2018-08-06T22:35:25.124Z,22.60
2018-08-06T22:37:54.000Z,22.50
2018-08-06T22:40:22.884Z,22.40
2018-08-06T22:42:51.744Z,22.30
2018-08-06T22:45:20.629Z,22.30
2018-08-06T22:47:49.483Z,22.30
2018-08-06T22:50:18.356Z,22.30
2018-08-06T22:52:47.212Z,22.30
2018-08-06T22:55:16.118Z,22.30
2018-08-06T22:57:44.973Z,22.30
2018-08-06T23:00:15.333Z,22.30
2018-08-06T23:02:44.620Z,22.30
2018-08-06T23:05:15.232Z,22.20
2018-08-06T23:07:44.125Z,22.20
2018-08-06T23:10:14.140Z,22.20
2018-08-06T23:12:43.037Z,22.20
2018-08-06T23:15:14.377Z,22.20
2018-08-06T23:17:43.676Z,22.20
2018-08-06T23:20:12.502Z,22.20
2018-08-06T23:22:41.374Z,22.20
2018-08-06T23:25:10.262Z,22.20
2018-08-06T23:27:39.431Z,22.30
2018-08-06T23:30:11.633Z,22.30
2018-08-06T23:32:40.636Z,22.20
2018-08-06T23:35:10.891Z,22.30
2018-08-06T23:37:40.849Z,22.30
2018-08-06T23:40:10.568Z,22.40
2018-08-06T23:42:40.165Z,22.40
2018-08-06T23:45:10.508Z,22.50
2018-08-06T23:47:40.008Z,22.40
2018-08-06T23:50:10.845Z,22.40
2018-08-06T23:52:40.663Z,22.40
2018-08-06T23:55:10.498Z,22.40
2018-08-06T23:57:39.365Z,22.40
